Bělehrad, Srbsko

06:14 CET 27. Březen 2015 (GMT +0100)
Beograd-Karaburma | | Change Station
CLOSE
Current Station
Osobní povětrnostní stanice
Location: Beograd-Karaburma, SRBIJA
Nadmořská výška: 355 ft
Poblíž povětrnostní stanice

Výška 355 ft 44.81 °N, 20.53 °E | Updated 18 minutes ago

Clear
Jasno
55.1 °F
Pocit jako 55.1 °F
S
5.0
Vítr proměnlivý Vítr od JJV
Gusts 8.0 mil/h

Dnes
Vysoké -- | Nízké -- °F
--% Možnost srážek
Včera
Vysoké -- | Nízké -- °F
Precip. -- inčů
5:29 AM 5:58 PM
Dorůstající srpek, 49% visible
Tlak 29.68 inčů
Viditelnost -9999.0 mílí
Zataženo
Rosný bod 45 °F
Vlhkost 69%
Dešťové srážky 0.00 inčů
Sněhová pokrývka Není k dispozici
UV záření Není k dispozici
Pyl Není k dispozici
Kvalita ovzduší Není k dispozici
Flu Activity Není k dispozici
METAR LYBE 270500Z 12005KT CAVOK 11/07 Q1005 NOSIG

More Conditions Fewer Conditions

Tlak 29.68 inčů
Viditelnost -9999.0 mílí
Zataženo
Rosný bod 45 °F
Vlhkost 69%
Dešťové srážky 0.00 inčů
Sněhová pokrývka Není k dispozici
UV záření Není k dispozici
Pyl Není k dispozici
Kvalita ovzduší Není k dispozici
Flu Activity Není k dispozici
METAR LYBE 270500Z 12005KT CAVOK 11/07 Q1005 NOSIG

More Conditions Fewer Conditions

10-Day Weather Forecast

Almanac

Astronomie

Mar. 27, 2015 Východ Západ
Skutečný čas
Občanský soumrak
Námořní soumrak
Astronomický soumrak
Měsíc
Délka denního světla
Délka dne
Tomorrow will be .
, % of the Moon is Illuminated

Dnešní extrémy

Nejvyšší hodnoty ve státě Nejnižší hodnoty ve státě

Community

WunderPhotos

Upload Photos

1,808,697 snímků staženo!

WunderBlogs® & News

Nearby

Kvalita ovzduší

  Kvalita ovzduší Index kvality ovzduší Polutant
Not available.

Výška sněhu

Station Hloubka Nadmořská výška

Seizmická činnost

Město Distance Mag. Čas & datum
Minimální zobrazený rozsah je 2.5.

Pobřežní teplota vody

Lokalita Teplota

Stations

Poblíž povětrnostní stanice

Lokace stanice Tepl. Ochlazování větrem Rosný bod Vlhkost Vítr Precip. Výška Čas hlášení Typ